Time;durP1;ratioP1;P1;durP2;ratioP2;P2;SDS_P1;SDS_P2;PMS_P1;PMS_P2;Temp;Humidity;BMP_temperature;BMP_pressure;BME280_temperature;BME280_humidity;BME280_pressure;Samples;Min_cycle;Max_cycle;Signal;HPM_P1;HPM_P2
2024/03/16 00:00:09;;;;;;;4.88;2.10;;;;;;;-141.50;100.00;63355.56;5055570;28;20689;-79
2024/03/16 00:02:37;;;;;;;4.95;1.83;;;;;;;-141.50;100.00;63355.56;5059449;28;20056;-80
2024/03/16 00:05:04;;;;;;;6.22;1.80;;;;;;;-141.50;100.00;63355.56;5033007;28;20118;-81
2024/03/16 00:07:31;;;;;;;5.88;1.73;;;;;;;-141.50;100.00;63355.56;5058186;28;20044;-81
2024/03/16 00:09:58;;;;;;;5.72;1.90;;;;;;;-141.50;100.00;63355.56;5054315;28;20396;-79
2024/03/16 00:12:25;;;;;;;6.15;2.00;;;;;;;-141.50;100.00;63355.56;5049763;28;20065;-80
2024/03/16 00:14:51;;;;;;;3.28;1.80;;;;;;;-141.50;100.00;63355.56;5056466;28;20053;-80
2024/03/16 00:17:19;;;;;;;5.25;2.15;;;;;;;-141.50;100.00;63355.56;5040943;28;20462;-80
2024/03/16 00:19:46;;;;;;;5.25;1.90;;;;;;;-141.50;100.00;63355.56;5032037;28;20061;-80
2024/03/16 00:22:13;;;;;;;5.18;1.88;;;;;;;-141.50;100.00;63355.56;5043542;28;20486;-79
2024/03/16 00:24:39;;;;;;;6.82;2.00;;;;;;;-141.50;100.00;63355.56;5043671;28;20060;-78
2024/03/16 00:27:07;;;;;;;5.72;1.48;;;;;;;-141.50;100.00;63355.56;5068471;28;20738;-80
2024/03/16 00:29:34;;;;;;;4.53;1.75;;;;;;;-141.50;100.00;63355.56;5079093;28;20064;-80
2024/03/16 00:32:01;;;;;;;5.68;1.85;;;;;;;-141.50;100.00;63355.56;5053755;28;20056;-78
2024/03/16 00:34:28;;;;;;;4.57;2.10;;;;;;;-141.50;100.00;63355.56;5044265;28;20083;-79
2024/03/16 00:36:54;;;;;;;3.38;1.92;;;;;;;-141.50;100.00;63355.56;5061604;28;20048;-81
2024/03/16 00:39:23;;;;;;;6.07;1.90;;;;;;;-141.50;100.00;63355.56;5069533;28;20064;-79
2024/03/16 00:41:50;;;;;;;4.90;1.60;;;;;;;-141.50;100.00;63355.56;5064046;28;20052;-78
2024/03/16 00:44:18;;;;;;;7.63;1.70;;;;;;;-141.50;100.00;63355.56;5060169;28;20128;-80
2024/03/16 00:46:45;;;;;;;5.35;2.00;;;;;;;-141.50;100.00;63355.56;5051988;28;20110;-80
2024/03/16 00:49:12;;;;;;;3.92;1.60;;;;;;;-141.50;100.00;63355.56;5051477;28;20048;-80
2024/03/16 00:51:40;;;;;;;2.85;1.67;;;;;;;-141.50;100.00;63355.56;5050989;28;20052;-80
2024/03/16 00:54:11;;;;;;;3.22;1.60;;;;;;;-141.50;100.00;63355.56;5067796;28;20044;-80
2024/03/16 00:56:38;;;;;;;7.55;1.83;;;;;;;-141.50;100.00;63355.56;5065331;28;20106;-80
2024/03/16 00:59:05;;;;;;;5.95;1.77;;;;;;;-141.50;100.00;63355.56;5049216;28;20045;-80
2024/03/16 01:01:34;;;;;;;4.63;2.17;;;;;;;-141.50;100.00;63355.56;5067873;28;20053;-80
2024/03/16 01:04:02;;;;;;;5.53;1.73;;;;;;;-141.50;100.00;63355.56;5061115;28;20048;-79
2024/03/16 01:06:29;;;;;;;4.68;1.80;;;;;;;-141.50;100.00;63355.56;5068551;28;20465;-80
2024/03/16 01:08:56;;;;;;;5.30;1.60;;;;;;;-141.50;100.00;63355.56;5067138;28;20625;-79
2024/03/16 01:11:24;;;;;;;5.63;1.80;;;;;;;-141.50;100.00;63355.56;5058300;28;20048;-80
2024/03/16 01:13:51;;;;;;;8.60;2.35;;;;;;;-141.50;100.00;63355.56;5049340;28;20122;-79
2024/03/16 01:16:18;;;;;;;4.07;1.65;;;;;;;-141.50;100.00;63355.56;5024402;28;20048;-78
2024/03/16 01:18:45;;;;;;;4.40;2.00;;;;;;;-141.50;100.00;63355.56;5057594;28;20068;-80
2024/03/16 01:21:12;;;;;;;2.80;1.38;;;;;;;-141.50;100.00;63355.56;5040525;28;20857;-79
2024/03/16 01:23:39;;;;;;;4.07;1.55;;;;;;;-141.50;100.00;63355.56;5066319;28;20063;-80
2024/03/16 01:26:07;;;;;;;3.60;1.77;;;;;;;-141.50;100.00;63355.56;5044044;28;20051;-80
2024/03/16 01:28:33;;;;;;;5.22;1.63;;;;;;;-141.50;100.00;63355.56;5057188;28;20053;-79
2024/03/16 01:31:00;;;;;;;5.90;1.95;;;;;;;-141.50;100.00;63355.56;5065071;28;20059;-79
2024/03/16 01:33:27;;;;;;;7.40;1.65;;;;;;;-141.50;100.00;63355.56;5063949;28;20047;-80
2024/03/16 01:35:54;;;;;;;5.53;1.80;;;;;;;-141.50;100.00;63355.56;5048724;28;20063;-80
2024/03/16 01:38:21;;;;;;;6.07;1.70;;;;;;;-141.50;100.00;63355.56;5046329;28;20048;-79
2024/03/16 01:40:47;;;;;;;4.82;1.73;;;;;;;-141.50;100.00;63355.56;5048904;28;20097;-78
2024/03/16 01:43:14;;;;;;;4.57;2.00;;;;;;;-141.50;100.00;63355.56;5067158;28;20411;-81
2024/03/16 01:45:42;;;;;;;3.97;1.65;;;;;;;-141.50;100.00;63355.56;5042771;28;20567;-81
2024/03/16 01:48:09;;;;;;;4.38;1.65;;;;;;;-141.50;100.00;63355.56;5066586;28;20044;-78
2024/03/16 01:50:40;;;;;;;6.50;1.73;;;;;;;-141.50;100.00;63355.56;5048345;28;20129;-79
2024/03/16 01:53:11;;;;;;;4.47;1.75;;;;;;;-141.50;100.00;63355.56;5065351;28;20518;-79
2024/03/16 01:55:38;;;;;;;4.35;2.00;;;;;;;-141.50;100.00;63355.56;5065479;28;20048;-81
2024/03/16 01:58:06;;;;;;;3.28;1.50;;;;;;;-141.50;100.00;63355.56;5048471;28;20045;-79
2024/03/16 02:00:34;;;;;;;4.15;1.63;;;;;;;-141.50;100.00;63355.56;5059926;28;20058;-79
2024/03/16 02:03:01;;;;;;;5.47;1.75;;;;;;;-141.50;100.00;63355.56;5067211;28;20110;-79
2024/03/16 02:05:28;;;;;;;4.75;2.00;;;;;;;-141.50;100.00;63355.56;5057070;28;20056;-79
2024/03/16 02:07:55;;;;;;;3.97;1.77;;;;;;;-141.50;100.00;63355.56;5057861;28;20087;-79
2024/03/16 02:10:22;;;;;;;10.35;1.95;;;;;;;-141.50;100.00;63355.56;5046649;28;20487;-80
2024/03/16 02:12:49;;;;;;;7.22;2.10;;;;;;;-141.50;100.00;63355.56;5049693;28;20945;-79
2024/03/16 02:15:16;;;;;;;4.07;1.90;;;;;;;-141.50;100.00;63355.56;5066591;28;20136;-79
2024/03/16 02:17:42;;;;;;;5.60;2.03;;;;;;;-141.50;100.00;63355.56;5056599;28;20106;-78
2024/03/16 02:20:14;;;;;;;6.00;2.28;;;;;;;-141.50;100.00;63355.56;5051810;28;20040;-79
2024/03/16 02:22:42;;;;;;;6.30;1.98;;;;;;;-141.50;100.00;63355.56;5063820;28;20079;-78
2024/03/16 02:25:10;;;;;;;5.57;1.70;;;;;;;-141.50;100.00;63355.56;5060397;28;20021;-79
2024/03/16 02:27:37;;;;;;;2.85;1.70;;;;;;;-141.50;100.00;63355.56;5047058;28;20068;-79
2024/03/16 02:30:05;;;;;;;6.70;1.67;;;;;;;-141.50;100.00;63355.56;5033287;28;20102;-78
2024/03/16 02:32:32;;;;;;;7.28;1.98;;;;;;;-141.50;100.00;63355.56;5058169;28;20049;-78
2024/03/16 02:34:59;;;;;;;5.13;2.00;;;;;;;-141.50;100.00;63355.56;5061832;28;20098;-80
2024/03/16 02:37:26;;;;;;;4.93;1.80;;;;;;;-141.50;100.00;63355.56;5057781;28;20056;-81
2024/03/16 02:39:52;;;;;;;5.85;2.05;;;;;;;-141.50;100.00;63355.56;5047049;28;20060;-81
2024/03/16 02:42:19;;;;;;;6.75;1.88;;;;;;;-141.50;100.00;63355.56;5038608;28;20537;-80
2024/03/16 02:44:49;;;;;;;6.25;1.85;;;;;;;-141.50;100.00;63355.56;5026985;28;20427;-81
2024/03/16 02:47:16;;;;;;;6.03;2.20;;;;;;;-141.50;100.00;63355.56;5041141;28;20053;-80
2024/03/16 02:49:43;;;;;;;7.53;2.45;;;;;;;-141.50;100.00;63355.56;5048068;28;20091;-80
2024/03/16 02:52:10;;;;;;;6.35;1.98;;;;;;;-141.50;100.00;63355.56;5066832;28;20066;-80
2024/03/16 02:54:38;;;;;;;8.23;1.95;;;;;;;-141.50;100.00;63355.56;5020807;28;20052;-78
2024/03/16 02:57:04;;;;;;;11.75;2.03;;;;;;;-141.50;100.00;63355.56;5066391;28;20045;-81
2024/03/16 02:59:31;;;;;;;6.50;2.10;;;;;;;-141.50;100.00;63355.56;5066789;28;20113;-80
2024/03/16 03:01:58;;;;;;;5.60;2.30;;;;;;;-141.50;100.00;63355.56;5048628;28;20409;-80
2024/03/16 03:04:25;;;;;;;7.38;2.20;;;;;;;-141.50;100.00;63355.56;5035498;28;20045;-81
2024/03/16 03:06:52;;;;;;;5.47;2.15;;;;;;;-141.50;100.00;63355.56;5038306;28;20554;-81
2024/03/16 03:09:20;;;;;;;5.00;2.17;;;;;;;-141.50;100.00;63355.56;5056236;28;20040;-80
2024/03/16 03:11:48;;;;;;;10.35;2.05;;;;;;;-141.50;100.00;63355.56;5065217;28;20550;-81
2024/03/16 03:14:17;;;;;;;3.53;1.95;;;;;;;-141.50;100.00;63355.56;5067106;28;20463;-80
2024/03/16 03:16:44;;;;;;;4.78;2.15;;;;;;;-141.50;100.00;63355.56;5046740;28;20104;-80
2024/03/16 03:19:10;;;;;;;5.18;1.92;;;;;;;-141.50;100.00;63355.56;5066234;28;20044;-79
2024/03/16 03:21:37;;;;;;;5.22;2.33;;;;;;;-141.50;100.00;63355.56;5032429;28;20098;-79
2024/03/16 03:24:04;;;;;;;5.25;2.00;;;;;;;-141.50;100.00;63355.56;5052083;28;20445;-79
2024/03/16 03:26:31;;;;;;;5.03;1.90;;;;;;;-141.50;100.00;63355.56;5060100;28;20679;-79
2024/03/16 03:28:59;;;;;;;5.00;2.05;;;;;;;-141.50;100.00;63355.56;5048755;28;20060;-79
2024/03/16 03:31:26;;;;;;;9.82;2.42;;;;;;;-141.50;100.00;63355.56;5059915;28;20041;-80
2024/03/16 03:33:56;;;;;;;8.98;2.08;;;;;;;-141.50;100.00;63355.56;5067226;28;20573;-80
2024/03/16 03:36:22;;;;;;;7.07;2.20;;;;;;;-141.50;100.00;63355.56;5048594;28;20042;-79
2024/03/16 03:38:49;;;;;;;4.93;2.30;;;;;;;-141.50;100.00;63355.56;5064990;28;20064;-79
2024/03/16 03:41:18;;;;;;;3.72;1.98;;;;;;;-141.50;100.00;63355.56;5067645;28;20044;-79
2024/03/16 03:43:47;;;;;;;5.05;1.92;;;;;;;-141.50;100.00;63355.56;5060801;28;20084;-80
2024/03/16 03:46:39;;;;;;;4.82;1.92;;;;;;;-141.50;100.00;63355.56;5065614;28;20072;-82
2024/03/16 03:49:14;;;;;;;6.47;2.30;;;;;;;-141.50;100.00;63355.56;5048444;28;20064;-81
2024/03/16 03:51:41;;;;;;;3.45;1.77;;;;;;;-141.50;100.00;63355.56;5057315;28;20576;-79
2024/03/16 03:54:08;;;;;;;5.28;2.33;;;;;;;-141.50;100.00;63355.56;5065786;28;20116;-81
2024/03/16 03:56:35;;;;;;;3.10;1.80;;;;;;;-141.50;100.00;63355.56;5066029;28;20061;-81
2024/03/16 03:59:02;;;;;;;4.15;2.17;;;;;;;-141.50;100.00;63355.56;5065303;28;20075;-81
2024/03/16 04:01:28;;;;;;;4.40;1.65;;;;;;;-141.50;100.00;63355.56;5070260;28;20059;-81
2024/03/16 04:03:57;;;;;;;5.25;1.90;;;;;;;-141.50;100.00;63355.56;5049859;28;20121;-78
2024/03/16 04:06:25;;;;;;;3.50;1.90;;;;;;;-141.50;100.00;63355.56;5049257;28;20616;-81
2024/03/16 04:08:52;;;;;;;4.97;1.83;;;;;;;-141.50;100.00;63355.56;5047678;28;20052;-80
2024/03/16 04:11:18;;;;;;;3.67;1.63;;;;;;;-141.50;100.00;63355.56;5052100;28;20094;-80
2024/03/16 04:13:45;;;;;;;6.93;1.83;;;;;;;-141.50;100.00;63355.56;5071371;28;20136;-79
2024/03/16 04:16:14;;;;;;;5.07;1.48;;;;;;;-141.50;100.00;63355.56;5070711;28;20116;-81
2024/03/16 04:18:42;;;;;;;4.00;1.65;;;;;;;-141.50;100.00;63355.56;5059030;28;20056;-80
2024/03/16 04:21:09;;;;;;;3.60;1.58;;;;;;;-141.50;100.00;63355.56;5078171;28;20071;-81
2024/03/16 04:23:36;;;;;;;3.80;1.60;;;;;;;-141.50;100.00;63355.56;5054322;28;20063;-78
2024/03/16 04:26:03;;;;;;;7.20;2.00;;;;;;;-141.50;100.00;63355.56;5068029;28;20144;-82
2024/03/16 04:28:29;;;;;;;3.90;1.67;;;;;;;-141.50;100.00;63355.56;5044100;28;20054;-81
2024/03/16 04:30:57;;;;;;;5.43;1.80;;;;;;;-141.50;100.00;63355.56;5069482;28;20101;-81
2024/03/16 04:33:24;;;;;;;5.60;1.80;;;;;;;-141.50;100.00;63355.56;5053396;28;20052;-81
2024/03/16 04:35:50;;;;;;;4.10;1.80;;;;;;;-141.50;100.00;63355.56;5045125;28;20056;-80
2024/03/16 04:38:17;;;;;;;5.63;1.67;;;;;;;-141.50;100.00;63355.56;5073416;28;20054;-81
2024/03/16 04:40:44;;;;;;;7.85;2.20;;;;;;;-141.50;100.00;63355.56;5052611;28;20057;-81
2024/03/16 04:43:11;;;;;;;5.78;1.75;;;;;;;-141.50;100.00;63355.56;5052160;28;20073;-81
2024/03/16 04:45:37;;;;;;;3.88;1.98;;;;;;;-141.50;100.00;63355.56;5065242;28;20531;-82
2024/03/16 04:48:04;;;;;;;5.28;2.00;;;;;;;-141.50;100.00;63355.56;5065040;28;20143;-80
2024/03/16 04:50:31;;;;;;;4.18;1.60;;;;;;;-141.50;100.00;63355.56;5083641;28;20053;-80
2024/03/16 04:52:58;;;;;;;4.25;1.60;;;;;;;-141.50;100.00;63355.56;5072620;28;20541;-82
2024/03/16 04:55:25;;;;;;;4.40;1.80;;;;;;;-141.50;100.00;63355.56;5066548;28;20169;-79
2024/03/16 04:57:52;;;;;;;4.88;1.88;;;;;;;-141.50;100.00;63355.56;5052226;28;20565;-80
2024/03/16 05:00:19;;;;;;;4.82;2.08;;;;;;;-141.50;100.00;63355.56;5052750;28;20052;-80
2024/03/16 05:02:46;;;;;;;4.65;1.63;;;;;;;-141.50;100.00;63355.56;5064704;28;20179;-79
2024/03/16 05:05:13;;;;;;;5.18;1.83;;;;;;;-141.50;100.00;63355.56;5063922;28;20053;-80
2024/03/16 05:07:40;;;;;;;4.80;1.83;;;;;;;-141.50;100.00;63355.56;5061237;28;20134;-78
2024/03/16 05:10:08;;;;;;;5.75;1.88;;;;;;;-141.50;100.00;63355.56;5065543;28;20048;-78
2024/03/16 05:12:35;;;;;;;6.50;1.95;;;;;;;-141.50;100.00;63355.56;5054774;28;20082;-79
2024/03/16 05:15:03;;;;;;;6.03;1.70;;;;;;;-141.50;100.00;63355.56;5058650;28;20067;-79
2024/03/16 05:17:31;;;;;;;7.55;2.03;;;;;;;-141.50;100.00;63355.56;5061538;28;20055;-79
2024/03/16 05:19:58;;;;;;;4.80;2.20;;;;;;;-141.50;100.00;63355.56;5074218;28;20114;-78
2024/03/16 05:22:25;;;;;;;4.88;2.22;;;;;;;-141.50;100.00;63355.56;5055463;28;20064;-78
2024/03/16 05:24:52;;;;;;;6.80;2.40;;;;;;;-141.50;100.00;63355.56;5045106;28;20048;-78
2024/03/16 05:27:19;;;;;;;6.53;1.73;;;;;;;-141.50;100.00;63355.56;5068661;28;20104;-79
2024/03/16 05:29:48;;;;;;;5.82;2.13;;;;;;;-141.50;100.00;63355.56;5061621;28;20617;-79
2024/03/16 05:32:15;;;;;;;8.48;2.13;;;;;;;-141.50;100.00;63355.56;5057103;28;20060;-78
2024/03/16 05:34:42;;;;;;;6.43;1.90;;;;;;;-141.50;100.00;63355.56;5040336;28;20109;-80
2024/03/16 05:37:08;;;;;;;9.77;2.60;;;;;;;-141.50;100.00;63355.56;5059454;28;20165;-77
2024/03/16 05:39:35;;;;;;;8.60;2.47;;;;;;;-141.50;100.00;63355.56;5029370;28;20059;-78
2024/03/16 05:42:02;;;;;;;5.63;2.30;;;;;;;-141.50;100.00;63355.56;5050810;28;20057;-80
2024/03/16 05:44:29;;;;;;;5.10;2.20;;;;;;;-141.50;100.00;63355.56;5044041;28;20054;-79
2024/03/16 05:46:56;;;;;;;4.30;1.85;;;;;;;-141.50;100.00;63355.56;5045301;28;20103;-79
2024/03/16 05:49:22;;;;;;;6.93;2.38;;;;;;;-141.50;100.00;63355.56;5058978;28;20068;-79
2024/03/16 05:51:52;;;;;;;7.60;2.25;;;;;;;-141.50;100.00;63355.56;5043701;28;20454;-79
2024/03/16 05:54:19;;;;;;;7.28;2.30;;;;;;;-141.50;100.00;63355.56;5049979;28;20506;-80
2024/03/16 05:56:45;;;;;;;5.05;2.10;;;;;;;-141.50;100.00;63355.56;5045832;28;20053;-80
2024/03/16 05:59:12;;;;;;;4.68;2.15;;;;;;;-141.50;100.00;63355.56;5060786;28;20071;-79
2024/03/16 06:01:41;;;;;;;4.75;1.88;;;;;;;-141.50;100.00;63355.56;5067769;28;20403;-81
2024/03/16 06:04:08;;;;;;;6.57;1.80;;;;;;;-141.50;100.00;63355.56;5046795;28;20671;-80
2024/03/16 06:06:35;;;;;;;3.50;2.00;;;;;;;-141.50;100.00;63355.56;5055235;28;20160;-80
2024/03/16 06:09:02;;;;;;;4.05;1.67;;;;;;;-141.50;100.00;63355.56;5058149;28;20068;-79
2024/03/16 06:11:33;;;;;;;2.50;1.65;;;;;;;-141.50;100.00;63355.56;5045787;28;20048;-79
2024/03/16 06:14:00;;;;;;;3.95;1.80;;;;;;;-141.50;100.00;63355.56;5060106;28;20048;-79
2024/03/16 06:16:26;;;;;;;2.83;1.63;;;;;;;-141.50;100.00;63355.56;5069404;28;20051;-79
2024/03/16 06:18:53;;;;;;;3.85;1.65;;;;;;;-141.50;100.00;63355.56;5076489;28;20052;-78
2024/03/16 06:21:20;;;;;;;4.20;1.50;;;;;;;-141.50;100.00;63355.56;5072648;28;20057;-81
2024/03/16 06:23:48;;;;;;;2.08;1.40;;;;;;;-141.50;100.00;63355.56;5069242;28;20076;-81
2024/03/16 06:26:18;;;;;;;6.30;1.73;;;;;;;-141.50;100.00;63355.56;5035186;28;20055;-82
2024/03/16 06:29:02;;;;;;;4.40;1.67;;;;;;;-141.50;100.00;63355.56;5069005;28;20171;-80
2024/03/16 06:31:32;;;;;;;6.43;1.70;;;;;;;-141.50;100.00;63355.56;5069161;28;20052;-80
2024/03/16 06:33:59;;;;;;;4.72;1.95;;;;;;;-141.50;100.00;63355.56;5068148;28;20136;-81
2024/03/16 06:36:27;;;;;;;4.35;1.70;;;;;;;-141.50;100.00;63355.56;5069215;28;20118;-81
2024/03/16 06:38:54;;;;;;;3.65;1.80;;;;;;;-141.50;100.00;63355.56;5070278;28;20058;-80
2024/03/16 06:41:21;;;;;;;7.57;2.28;;;;;;;-141.50;100.00;63355.56;5064991;28;20090;-81
2024/03/16 06:43:48;;;;;;;3.88;1.80;;;;;;;-141.50;100.00;63355.56;5052182;28;20056;-80
2024/03/16 06:46:18;;;;;;;3.53;1.83;;;;;;;-141.50;100.00;63355.56;5068476;28;20064;-81
2024/03/16 06:48:45;;;;;;;7.65;2.03;;;;;;;-141.50;100.00;63355.56;5069994;28;20063;-80
2024/03/16 06:51:11;;;;;;;5.32;1.88;;;;;;;-141.50;100.00;63355.56;5061239;28;20037;-80
2024/03/16 06:53:38;;;;;;;5.18;1.80;;;;;;;-141.50;100.00;63355.56;5059238;28;20053;-81
2024/03/16 06:56:06;;;;;;;6.03;2.38;;;;;;;-141.50;100.00;63355.56;5063813;28;20432;-80
2024/03/16 06:58:33;;;;;;;2.63;1.80;;;;;;;-141.50;100.00;63355.56;5056969;28;20528;-80
2024/03/16 07:01:00;;;;;;;4.32;1.90;;;;;;;-141.50;100.00;63355.56;5062138;28;20049;-81
2024/03/16 07:03:27;;;;;;;9.77;2.70;;;;;;;-141.50;100.00;63355.56;5041162;28;20055;-80
2024/03/16 07:05:53;;;;;;;4.88;2.10;;;;;;;-141.50;100.00;63355.56;5058189;28;20053;-81
2024/03/16 07:08:21;;;;;;;3.75;1.90;;;;;;;-141.50;100.00;63355.56;5047979;28;20045;-81
2024/03/16 07:10:48;;;;;;;5.43;2.33;;;;;;;-141.50;100.00;63355.56;5046900;28;20134;-81
2024/03/16 07:13:15;;;;;;;9.70;2.15;;;;;;;-141.50;100.00;63355.56;5048841;28;20060;-81
2024/03/16 07:15:43;;;;;;;6.40;2.30;;;;;;;-141.50;100.00;63355.56;5064343;28;20056;-81
2024/03/16 07:18:10;;;;;;;2.67;1.90;;;;;;;-141.50;100.00;63355.56;5067306;28;20054;-80
2024/03/16 07:20:37;;;;;;;6.13;2.13;;;;;;;-141.50;100.00;63355.56;5049438;28;20410;-78
2024/03/16 07:23:04;;;;;;;3.67;2.10;;;;;;;-141.50;100.00;63355.56;5055414;28;20045;-81
2024/03/16 07:25:30;;;;;;;5.32;2.00;;;;;;;-141.50;100.00;63355.56;5055806;28;20057;-78
2024/03/16 07:27:57;;;;;;;4.82;2.20;;;;;;;-141.50;100.00;63355.56;5042596;28;20048;-81
2024/03/16 07:30:25;;;;;;;6.47;2.28;;;;;;;-141.50;100.00;63355.56;5036477;28;20052;-79
2024/03/16 07:32:51;;;;;;;4.88;2.05;;;;;;;-141.50;100.00;63355.56;5043340;28;20076;-80
2024/03/16 07:35:18;;;;;;;5.32;2.22;;;;;;;-141.50;100.00;63355.56;5052026;28;20067;-79
2024/03/16 07:37:45;;;;;;;8.43;2.45;;;;;;;-141.50;100.00;63355.56;5062165;28;20561;-81
2024/03/16 07:40:15;;;;;;;3.38;2.08;;;;;;;-141.50;100.00;63355.56;5049482;28;20657;-81
2024/03/16 07:42:42;;;;;;;5.18;2.55;;;;;;;-141.50;100.00;63355.56;5066143;28;20048;-78
2024/03/16 07:45:09;;;;;;;6.97;3.08;;;;;;;-141.50;100.00;63355.56;5064110;28;20071;-81
2024/03/16 07:47:36;;;;;;;7.53;2.70;;;;;;;-141.50;100.00;63355.56;5061928;28;20136;-78
2024/03/16 07:50:05;;;;;;;8.63;2.83;;;;;;;-141.50;100.00;63355.56;5042730;28;20044;-80
2024/03/16 07:52:33;;;;;;;7.00;2.60;;;;;;;-141.50;100.00;63355.56;5052239;28;20061;-80
2024/03/16 07:55:00;;;;;;;7.53;2.78;;;;;;;-141.50;100.00;63355.56;5047736;28;20053;-79
2024/03/16 07:57:28;;;;;;;8.60;3.05;;;;;;;-141.50;100.00;63355.56;5053172;28;20094;-81
2024/03/16 07:59:57;;;;;;;6.88;2.53;;;;;;;-141.50;100.00;63355.56;5055409;28;20179;-81
2024/03/16 08:02:24;;;;;;;5.55;2.75;;;;;;;-141.50;100.00;63355.56;5073173;28;20060;-80
2024/03/16 08:04:51;;;;;;;7.38;2.63;;;;;;;-141.50;100.00;63355.56;5053539;28;20557;-81
2024/03/16 08:07:18;;;;;;;7.63;2.30;;;;;;;-141.50;100.00;63355.56;5024323;28;20044;-80
2024/03/16 08:09:44;;;;;;;5.40;2.28;;;;;;;-141.50;100.00;63355.56;5071828;28;20048;-82
2024/03/16 08:12:11;;;;;;;6.07;2.25;;;;;;;-141.50;100.00;63355.56;5034808;28;20465;-81
2024/03/16 08:14:38;;;;;;;7.72;2.20;;;;;;;-141.50;100.00;63355.56;5072591;28;20106;-80
2024/03/16 08:17:05;;;;;;;3.70;1.67;;;;;;;-141.50;100.00;63355.56;5081092;28;20195;-80
2024/03/16 08:19:32;;;;;;;4.95;1.83;;;;;;;-141.50;100.00;63355.56;5072127;28;20046;-81
2024/03/16 08:21:59;;;;;;;4.15;1.90;;;;;;;-141.50;100.00;63355.56;5054652;28;20127;-80
2024/03/16 08:24:26;;;;;;;7.97;1.83;;;;;;;-141.50;100.00;63355.56;5053843;28;20083;-80
2024/03/16 08:26:53;;;;;;;4.93;2.00;;;;;;;-141.50;100.00;63355.56;5051213;28;20145;-81
2024/03/16 08:29:20;;;;;;;4.13;1.90;;;;;;;-141.50;100.00;63355.56;5072283;28;20071;-83
2024/03/16 08:31:46;;;;;;;3.70;2.17;;;;;;;-141.50;100.00;63355.56;5071574;28;20131;-82
2024/03/16 08:34:13;;;;;;;6.22;2.20;;;;;;;-141.50;100.00;63355.56;5056436;28;20052;-83
2024/03/16 08:36:40;;;;;;;4.55;1.88;;;;;;;-141.50;100.00;63355.56;5051215;28;20136;-84
2024/03/16 08:39:08;;;;;;;6.05;2.05;;;;;;;-141.50;100.00;63355.56;5071443;28;20050;-78
2024/03/16 08:41:36;;;;;;;2.60;1.60;;;;;;;-141.50;100.00;63355.56;5071129;28;20071;-81
2024/03/16 08:44:04;;;;;;;9.13;2.05;;;;;;;-141.50;100.00;63355.56;5062530;28;20037;-84
2024/03/16 08:46:31;;;;;;;7.25;1.95;;;;;;;-141.50;100.00;63355.56;5041779;28;20041;-81
2024/03/16 08:48:59;;;;;;;2.78;1.75;;;;;;;-141.50;100.00;63355.56;5065996;28;20083;-80
2024/03/16 08:51:26;;;;;;;4.97;1.80;;;;;;;-141.50;100.00;63355.56;5069378;28;20224;-81
2024/03/16 08:53:53;;;;;;;4.28;1.88;;;;;;;-141.50;100.00;63355.56;5066798;28;20109;-80
2024/03/16 08:56:20;;;;;;;5.15;1.85;;;;;;;-141.50;100.00;63355.56;5051322;28;20098;-80
2024/03/16 08:58:47;;;;;;;5.80;1.80;;;;;;;-141.50;100.00;63355.56;5051362;28;20056;-80
2024/03/16 09:01:13;;;;;;;5.57;2.10;;;;;;;-141.50;100.00;63355.56;5043178;28;20040;-79
2024/03/16 09:03:40;;;;;;;5.57;1.60;;;;;;;-141.50;100.00;63355.56;5066209;28;20143;-82
2024/03/16 09:06:07;;;;;;;4.65;1.65;;;;;;;-141.50;100.00;63355.56;5070985;28;20052;-79
2024/03/16 09:08:36;;;;;;;3.47;1.50;;;;;;;-141.50;100.00;63355.56;5073781;28;20056;-81
2024/03/16 09:11:04;;;;;;;3.63;1.92;;;;;;;-141.50;100.00;63355.56;5062556;28;20060;-80
2024/03/16 09:13:33;;;;;;;7.03;1.63;;;;;;;-141.50;100.00;63355.56;5073459;28;20102;-80
2024/03/16 09:16:05;;;;;;;6.22;1.92;;;;;;;-141.50;100.00;63355.56;5067591;28;20091;-80
2024/03/16 09:18:34;;;;;;;3.83;1.58;;;;;;;-141.50;100.00;63355.56;5045616;28;20049;-79
2024/03/16 09:21:03;;;;;;;4.00;1.80;;;;;;;-141.50;100.00;63355.56;5055431;28;20058;-82
2024/03/16 09:23:29;;;;;;;4.60;1.52;;;;;;;-141.50;100.00;63355.56;5056692;28;20067;-81
2024/03/16 09:25:57;;;;;;;4.60;1.70;;;;;;;-141.50;100.00;63355.56;5053626;28;20155;-82
2024/03/16 09:28:24;;;;;;;3.10;1.67;;;;;;;-141.50;100.00;63355.56;5053302;28;20104;-83
2024/03/16 09:30:50;;;;;;;5.53;1.90;;;;;;;-141.50;100.00;63355.56;5057378;28;20118;-84
2024/03/16 09:33:22;;;;;;;9.52;2.17;;;;;;;-141.50;100.00;63355.56;5049279;28;20045;-81
2024/03/16 09:35:52;;;;;;;3.03;1.77;;;;;;;-141.50;100.00;63355.56;5051670;28;20058;-80
2024/03/16 09:38:19;;;;;;;7.03;2.10;;;;;;;-141.50;100.00;63355.56;5050746;28;20048;-80
2024/03/16 09:40:52;;;;;;;3.42;2.00;;;;;;;-141.50;100.00;63355.56;5070285;28;20070;-81
2024/03/16 09:43:19;;;;;;;2.95;1.73;;;;;;;-141.50;100.00;63355.56;5047341;28;20053;-80
2024/03/16 09:45:46;;;;;;;7.10;2.08;;;;;;;-141.50;100.00;63355.56;5049642;28;21454;-79
2024/03/16 09:48:15;;;;;;;6.15;2.10;;;;;;;-141.50;100.00;63355.56;5034038;28;20041;-81
2024/03/16 09:50:47;;;;;;;8.45;2.55;;;;;;;-141.50;100.00;63355.56;5035497;28;20041;-80
2024/03/16 09:53:32;;;;;;;4.38;1.92;;;;;;;-141.50;100.00;63355.56;5051934;28;20071;-80
2024/03/16 09:56:09;;;;;;;3.38;1.90;;;;;;;-141.50;100.00;63355.56;5063581;28;20061;-79
2024/03/16 09:58:36;;;;;;;4.60;2.00;;;;;;;-141.50;100.00;63355.56;5056508;28;20075;-78
2024/03/16 10:01:04;;;;;;;3.85;2.03;;;;;;;-141.50;100.00;63355.56;5041653;28;20045;-80
2024/03/16 10:03:31;;;;;;;3.58;1.70;;;;;;;-141.50;100.00;63355.56;5041886;28;20047;-80
2024/03/16 10:05:59;;;;;;;6.45;1.77;;;;;;;-141.50;100.00;63355.56;5058371;28;20491;-81
2024/03/16 10:08:26;;;;;;;3.83;1.77;;;;;;;-141.50;100.00;63355.56;5021474;28;20335;-78
2024/03/16 10:11:10;;;;;;;3.75;1.50;;;;;;;-141.50;100.00;63355.56;5056501;28;20048;-80
2024/03/16 10:13:39;;;;;;;7.55;1.67;;;;;;;-141.50;100.00;63355.56;5052265;28;20139;-79
2024/03/16 10:16:11;;;;;;;4.55;1.75;;;;;;;-141.50;100.00;63355.56;5033103;28;20451;-80
2024/03/16 10:18:36;;;;;;;3.58;1.60;;;;;;;-141.50;100.00;63355.56;5060650;28;20044;-81
2024/03/16 10:21:05;;;;;;;6.18;1.27;;;;;;;-141.50;100.00;63355.56;5039020;28;20052;-81
2024/03/16 10:23:31;;;;;;;4.20;1.45;;;;;;;-141.50;100.00;63355.56;5038765;28;20044;-78
2024/03/16 10:25:57;;;;;;;3.60;1.60;;;;;;;-141.50;100.00;63355.56;5054129;28;20056;-78
2024/03/16 10:28:24;;;;;;;6.95;1.70;;;;;;;-141.50;100.00;63355.56;5038183;28;20059;-80
2024/03/16 10:30:50;;;;;;;2.42;1.48;;;;;;;-141.50;100.00;63355.56;5014872;28;20044;-78
2024/03/16 10:33:18;;;;;;;5.32;1.88;;;;;;;-141.50;100.00;63355.56;5052893;28;20045;-79
2024/03/16 10:35:45;;;;;;;5.70;1.42;;;;;;;-141.50;100.00;63355.56;5023024;28;20101;-80
2024/03/16 10:38:23;;;;;;;3.35;1.42;;;;;;;-141.50;100.00;63355.56;5049323;28;20052;-77
2024/03/16 10:40:49;;;;;;;5.10;1.20;;;;;;;-141.50;100.00;63355.56;5040379;28;20051;-78
2024/03/16 10:43:16;;;;;;;5.07;1.60;;;;;;;-141.50;100.00;63355.56;5037884;28;20050;-84
2024/03/16 10:45:47;;;;;;;7.25;1.80;;;;;;;-141.50;100.00;63355.56;5054399;28;20155;-81
2024/03/16 10:48:15;;;;;;;3.42;1.48;;;;;;;-141.50;100.00;63355.56;5056218;28;20296;-80
2024/03/16 10:50:48;;;;;;;5.95;1.80;;;;;;;-141.50;100.00;63355.56;5017534;28;20052;-83
2024/03/16 10:53:16;;;;;;;2.90;1.30;;;;;;;-141.50;100.00;63355.56;5058465;28;20116;-81
2024/03/16 10:55:47;;;;;;;3.03;1.33;;;;;;;-141.50;100.00;63355.56;5043294;28;20062;-80
2024/03/16 10:58:25;;;;;;;2.88;1.52;;;;;;;-141.50;100.00;63355.56;5048863;28;20040;-81
2024/03/16 11:00:58;;;;;;;6.05;1.60;;;;;;;-141.50;100.00;63355.56;5057027;28;20040;-79
2024/03/16 11:03:31;;;;;;;4.80;1.10;;;;;;;-141.50;100.00;63355.56;5058246;28;20087;-79
2024/03/16 11:06:09;;;;;;;2.58;1.23;;;;;;;-141.50;100.00;63355.56;5055015;28;20060;-78
2024/03/16 11:08:36;;;;;;;3.53;1.00;;;;;;;-141.50;100.00;63355.56;5052829;28;20082;-78
2024/03/16 11:11:04;;;;;;;1.95;0.75;;;;;;;-141.50;100.00;63355.56;5034398;28;20041;-78